sensor_id;sensor_type;location;lat;lon;timestamp;pressure;altitude;pressure_sealevel;temperature
68127;BMP180;54931;52.098;21.006;2022-08-01T00:02:22;99921.00;;;15.20
68127;BMP180;54931;52.098;21.006;2022-08-01T00:04:49;99922.60;;;15.20
68127;BMP180;54931;52.098;21.006;2022-08-01T00:07:16;99917.80;;;15.20
68127;BMP180;54931;52.098;21.006;2022-08-01T00:09:44;99917.20;;;15.20
68127;BMP180;54931;52.098;21.006;2022-08-01T00:12:11;99912.40;;;15.20
68127;BMP180;54931;52.098;21.006;2022-08-01T00:14:38;99910.40;;;15.20
68127;BMP180;54931;52.098;21.006;2022-08-01T00:17:06;99912.60;;;15.20
68127;BMP180;54931;52.098;21.006;2022-08-01T00:19:34;99908.40;;;15.20
68127;BMP180;54931;52.098;21.006;2022-08-01T00:22:01;99905.20;;;15.16
68127;BMP180;54931;52.098;21.006;2022-08-01T00:24:28;99902.40;;;15.10
68127;BMP180;54931;52.098;21.006;2022-08-01T00:26:55;99901.00;;;15.12
68127;BMP180;54931;52.098;21.006;2022-08-01T00:29:22;99899.60;;;15.18
68127;BMP180;54931;52.098;21.006;2022-08-01T00:31:50;99901.80;;;15.20
68127;BMP180;54931;52.098;21.006;2022-08-01T00:34:17;99893.60;;;15.20
68127;BMP180;54931;52.098;21.006;2022-08-01T00:36:45;99887.00;;;15.20
68127;BMP180;54931;52.098;21.006;2022-08-01T00:39:13;99888.00;;;15.16
68127;BMP180;54931;52.098;21.006;2022-08-01T00:41:40;99887.20;;;15.20
68127;BMP180;54931;52.098;21.006;2022-08-01T00:44:08;99888.00;;;15.20
68127;BMP180;54931;52.098;21.006;2022-08-01T00:46:35;99884.60;;;15.20
68127;BMP180;54931;52.098;21.006;2022-08-01T00:49:03;99883.20;;;15.20
68127;BMP180;54931;52.098;21.006;2022-08-01T00:51:30;99884.40;;;15.12
68127;BMP180;54931;52.098;21.006;2022-08-01T00:53:57;99886.80;;;15.12
68127;BMP180;54931;52.098;21.006;2022-08-01T00:56:26;99891.80;;;15.10
68127;BMP180;54931;52.098;21.006;2022-08-01T00:58:55;99889.40;;;15.10
68127;BMP180;54931;52.098;21.006;2022-08-01T01:01:24;99893.40;;;15.10
68127;BMP180;54931;52.098;21.006;2022-08-01T01:03:52;99896.40;;;15.10
68127;BMP180;54931;52.098;21.006;2022-08-01T01:07:08;99896.60;;;15.10
68127;BMP180;54931;52.098;21.006;2022-08-01T01:12:44;99891.20;;;15.00
68127;BMP180;54931;52.098;21.006;2022-08-01T01:15:34;99889.40;;;15.00
68127;BMP180;54931;52.098;21.006;2022-08-01T01:20:40;99885.80;;;14.94
68127;BMP180;54931;52.098;21.006;2022-08-01T01:31:55;99890.80;;;14.90
68127;BMP180;54931;52.098;21.006;2022-08-01T01:34:27;99891.40;;;14.90
68127;BMP180;54931;52.098;21.006;2022-08-01T01:36:56;99890.80;;;14.90
68127;BMP180;54931;52.098;21.006;2022-08-01T01:39:29;99892.40;;;14.90
68127;BMP180;54931;52.098;21.006;2022-08-01T01:41:58;99892.60;;;14.84
68127;BMP180;54931;52.098;21.006;2022-08-01T01:44:29;99894.20;;;14.80
68127;BMP180;54931;52.098;21.006;2022-08-01T01:46:59;99895.80;;;14.80
68127;BMP180;54931;52.098;21.006;2022-08-01T01:49:28;99892.60;;;14.74
68127;BMP180;54931;52.098;21.006;2022-08-01T01:51:59;99896.20;;;14.70
68127;BMP180;54931;52.098;21.006;2022-08-01T01:54:37;99893.00;;;14.70
68127;BMP180;54931;52.098;21.006;2022-08-01T01:57:08;99890.00;;;14.60
68127;BMP180;54931;52.098;21.006;2022-08-01T01:59:38;99893.40;;;14.60
68127;BMP180;54931;52.098;21.006;2022-08-01T02:02:09;99891.00;;;14.60
68127;BMP180;54931;52.098;21.006;2022-08-01T02:04:42;99887.80;;;14.52
68127;BMP180;54931;52.098;21.006;2022-08-01T02:07:18;99884.80;;;14.50
68127;BMP180;54931;52.098;21.006;2022-08-01T02:09:47;99884.40;;;14.50
68127;BMP180;54931;52.098;21.006;2022-08-01T02:12:18;99879.20;;;14.40
68127;BMP180;54931;52.098;21.006;2022-08-01T02:14:48;99878.20;;;14.40
68127;BMP180;54931;52.098;21.006;2022-08-01T02:17:20;99878.80;;;14.30
68127;BMP180;54931;52.098;21.006;2022-08-01T02:19:48;99880.40;;;14.30
68127;BMP180;54931;52.098;21.006;2022-08-01T02:22:37;99878.40;;;14.20
68127;BMP180;54931;52.098;21.006;2022-08-01T02:25:36;99882.60;;;14.20
68127;BMP180;54931;52.098;21.006;2022-08-01T02:28:11;99883.20;;;14.10
68127;BMP180;54931;52.098;21.006;2022-08-01T02:30:46;99882.60;;;14.10
68127;BMP180;54931;52.098;21.006;2022-08-01T02:33:23;99885.80;;;14.02
68127;BMP180;54931;52.098;21.006;2022-08-01T02:35:56;99891.40;;;14.00
68127;BMP180;54931;52.098;21.006;2022-08-01T02:38:28;99891.60;;;14.00
68127;BMP180;54931;52.098;21.006;2022-08-01T02:41:05;99892.20;;;13.90
68127;BMP180;54931;52.098;21.006;2022-08-01T02:43:37;99894.20;;;13.90
68127;BMP180;54931;52.098;21.006;2022-08-01T02:46:11;99887.60;;;13.90
68127;BMP180;54931;52.098;21.006;2022-08-01T02:48:42;99892.20;;;13.80
68127;BMP180;54931;52.098;21.006;2022-08-01T02:51:11;99895.60;;;13.80
68127;BMP180;54931;52.098;21.006;2022-08-01T02:53:42;99901.60;;;13.80
68127;BMP180;54931;52.098;21.006;2022-08-01T02:56:11;99899.20;;;13.70
68127;BMP180;54931;52.098;21.006;2022-08-01T02:58:41;99904.20;;;13.70
68127;BMP180;54931;52.098;21.006;2022-08-01T03:01:12;99902.40;;;13.70
68127;BMP180;54931;52.098;21.006;2022-08-01T03:03:40;99900.20;;;13.66
68127;BMP180;54931;52.098;21.006;2022-08-01T03:06:09;99900.20;;;13.60
68127;BMP180;54931;52.098;21.006;2022-08-01T03:08:38;99901.60;;;13.60
68127;BMP180;54931;52.098;21.006;2022-08-01T03:11:08;99898.20;;;13.60
68127;BMP180;54931;52.098;21.006;2022-08-01T03:13:37;99894.60;;;13.60
68127;BMP180;54931;52.098;21.006;2022-08-01T03:16:06;99896.00;;;13.60
68127;BMP180;54931;52.098;21.006;2022-08-01T03:18:36;99897.80;;;13.60
68127;BMP180;54931;52.098;21.006;2022-08-01T03:21:07;99898.80;;;13.60
68127;BMP180;54931;52.098;21.006;2022-08-01T03:23:37;99900.40;;;13.70
68127;BMP180;54931;52.098;21.006;2022-08-01T03:26:06;99896.20;;;13.70
68127;BMP180;54931;52.098;21.006;2022-08-01T03:28:35;99892.20;;;13.70
68127;BMP180;54931;52.098;21.006;2022-08-01T03:31:04;99893.80;;;13.70
68127;BMP180;54931;52.098;21.006;2022-08-01T03:33:32;99896.20;;;13.70
68127;BMP180;54931;52.098;21.006;2022-08-01T03:36:02;99903.20;;;13.72
68127;BMP180;54931;52.098;21.006;2022-08-01T03:38:35;99905.40;;;13.80
68127;BMP180;54931;52.098;21.006;2022-08-01T03:41:12;99911.00;;;13.82
68127;BMP180;54931;52.098;21.006;2022-08-01T03:44:00;99909.80;;;13.90
68127;BMP180;54931;52.098;21.006;2022-08-01T03:46:54;99914.40;;;13.90
68127;BMP180;54931;52.098;21.006;2022-08-01T03:49:30;99921.00;;;14.00
68127;BMP180;54931;52.098;21.006;2022-08-01T03:52:01;99921.00;;;14.00
68127;BMP180;54931;52.098;21.006;2022-08-01T03:54:33;99923.80;;;14.08
68127;BMP180;54931;52.098;21.006;2022-08-01T03:57:02;99925.60;;;14.10
68127;BMP180;54931;52.098;21.006;2022-08-01T03:59:32;99925.00;;;14.16
68127;BMP180;54931;52.098;21.006;2022-08-01T04:02:02;99927.40;;;14.20
68127;BMP180;54931;52.098;21.006;2022-08-01T04:04:30;99930.40;;;14.20
68127;BMP180;54931;52.098;21.006;2022-08-01T04:06:57;99931.20;;;14.20
68127;BMP180;54931;52.098;21.006;2022-08-01T04:09:31;99940.40;;;14.22
68127;BMP180;54931;52.098;21.006;2022-08-01T04:12:01;99938.60;;;14.30
68127;BMP180;54931;52.098;21.006;2022-08-01T04:14:29;99940.00;;;14.30
68127;BMP180;54931;52.098;21.006;2022-08-01T04:16:56;99941.00;;;14.30
68127;BMP180;54931;52.098;21.006;2022-08-01T04:19:24;99943.20;;;14.30
68127;BMP180;54931;52.098;21.006;2022-08-01T04:21:52;99944.60;;;14.36
68127;BMP180;54931;52.098;21.006;2022-08-01T04:24:23;99941.80;;;14.40
68127;BMP180;54931;52.098;21.006;2022-08-01T04:26:52;99938.40;;;14.40
68127;BMP180;54931;52.098;21.006;2022-08-01T04:29:21;99939.80;;;14.50
68127;BMP180;54931;52.098;21.006;2022-08-01T04:31:50;99947.40;;;14.50
68127;BMP180;54931;52.098;21.006;2022-08-01T04:34:23;99950.40;;;14.60
68127;BMP180;54931;52.098;21.006;2022-08-01T04:36:55;99950.00;;;14.60
68127;BMP180;54931;52.098;21.006;2022-08-01T04:39:28;99954.20;;;14.60
68127;BMP180;54931;52.098;21.006;2022-08-01T04:42:00;99947.20;;;14.70
68127;BMP180;54931;52.098;21.006;2022-08-01T04:44:31;99950.80;;;14.70
68127;BMP180;54931;52.098;21.006;2022-08-01T04:47:04;99948.60;;;14.80
68127;BMP180;54931;52.098;21.006;2022-08-01T04:49:35;99951.40;;;14.80
68127;BMP180;54931;52.098;21.006;2022-08-01T04:52:03;99950.00;;;14.80
68127;BMP180;54931;52.098;21.006;2022-08-01T04:54:36;99950.00;;;14.88
68127;BMP180;54931;52.098;21.006;2022-08-01T04:57:05;99953.40;;;14.90
68127;BMP180;54931;52.098;21.006;2022-08-01T04:59:36;99961.40;;;15.00
68127;BMP180;54931;52.098;21.006;2022-08-01T05:02:15;99962.60;;;15.10
68127;BMP180;54931;52.098;21.006;2022-08-01T05:04:43;99962.80;;;15.10
68127;BMP180;54931;52.098;21.006;2022-08-01T05:07:12;99965.40;;;15.10
68127;BMP180;54931;52.098;21.006;2022-08-01T05:09:41;99967.20;;;15.10
68127;BMP180;54931;52.098;21.006;2022-08-01T05:12:09;99971.00;;;15.08
68127;BMP180;54931;52.098;21.006;2022-08-01T05:14:38;99971.20;;;15.06
68127;BMP180;54931;52.098;21.006;2022-08-01T05:17:07;99972.60;;;15.00
68127;BMP180;54931;52.098;21.006;2022-08-01T05:19:37;99969.00;;;15.00
68127;BMP180;54931;52.098;21.006;2022-08-01T05:22:08;99972.20;;;15.00
68127;BMP180;54931;52.098;21.006;2022-08-01T05:24:38;99973.40;;;14.94
68127;BMP180;54931;52.098;21.006;2022-08-01T05:27:06;99975.20;;;14.90
68127;BMP180;54931;52.098;21.006;2022-08-01T05:29:37;99980.40;;;14.80
68127;BMP180;54931;52.098;21.006;2022-08-01T05:32:05;99981.80;;;14.80
68127;BMP180;54931;52.098;21.006;2022-08-01T05:34:32;99979.60;;;14.80
68127;BMP180;54931;52.098;21.006;2022-08-01T05:37:00;99977.20;;;14.86
68127;BMP180;54931;52.098;21.006;2022-08-01T05:39:27;99978.40;;;15.20
68127;BMP180;54931;52.098;21.006;2022-08-01T05:41:55;99981.60;;;15.84
68127;BMP180;54931;52.098;21.006;2022-08-01T05:44:22;99983.80;;;16.30
68127;BMP180;54931;52.098;21.006;2022-08-01T05:46:50;99984.80;;;16.88
68127;BMP180;54931;52.098;21.006;2022-08-01T05:49:17;99984.20;;;17.48
68127;BMP180;54931;52.098;21.006;2022-08-01T05:51:44;99987.80;;;17.74
68127;BMP180;54931;52.098;21.006;2022-08-01T05:54:12;99983.20;;;18.00
68127;BMP180;54931;52.098;21.006;2022-08-01T05:56:39;99991.80;;;18.44
68127;BMP180;54931;52.098;21.006;2022-08-01T05:59:07;99996.00;;;18.86
68127;BMP180;54931;52.098;21.006;2022-08-01T06:01:34;99992.40;;;19.26
68127;BMP180;54931;52.098;21.006;2022-08-01T06:04:02;99991.00;;;19.50
68127;BMP180;54931;52.098;21.006;2022-08-01T06:06:29;99990.60;;;19.78
68127;BMP180;54931;52.098;21.006;2022-08-01T06:08:56;99987.80;;;19.80
68127;BMP180;54931;52.098;21.006;2022-08-01T06:11:23;99989.20;;;19.88
68127;BMP180;54931;52.098;21.006;2022-08-01T06:13:51;99985.00;;;20.00
68127;BMP180;54931;52.098;21.006;2022-08-01T06:16:19;99984.00;;;20.14
68127;BMP180;54931;52.098;21.006;2022-08-01T06:18:46;99987.80;;;20.20
68127;BMP180;54931;52.098;21.006;2022-08-01T06:21:14;99986.40;;;20.34
68127;BMP180;54931;52.098;21.006;2022-08-01T06:23:42;99986.20;;;20.20
68127;BMP180;54931;52.098;21.006;2022-08-01T06:26:09;99993.60;;;20.28
68127;BMP180;54931;52.098;21.006;2022-08-01T06:28:37;99997.60;;;20.30
68127;BMP180;54931;52.098;21.006;2022-08-01T06:31:05;99996.40;;;20.50
68127;BMP180;54931;52.098;21.006;2022-08-01T06:33:33;99996.20;;;20.64
68127;BMP180;54931;52.098;21.006;2022-08-01T06:36:00;99997.60;;;20.80
68127;BMP180;54931;52.098;21.006;2022-08-01T06:38:28;99998.60;;;21.06
68127;BMP180;54931;52.098;21.006;2022-08-01T06:40:55;100002.60;;;21.44
68127;BMP180;54931;52.098;21.006;2022-08-01T06:43:23;100003.60;;;21.80
68127;BMP180;54931;52.098;21.006;2022-08-01T06:45:50;100006.60;;;21.90
68127;BMP180;54931;52.098;21.006;2022-08-01T06:48:18;100005.20;;;21.84
68127;BMP180;54931;52.098;21.006;2022-08-01T06:50:45;100006.20;;;21.70
68127;BMP180;54931;52.098;21.006;2022-08-01T06:53:12;99999.40;;;21.60
68127;BMP180;54931;52.098;21.006;2022-08-01T06:55:40;100001.00;;;21.60
68127;BMP180;54931;52.098;21.006;2022-08-01T06:58:07;99999.20;;;21.60
68127;BMP180;54931;52.098;21.006;2022-08-01T07:00:36;100002.80;;;21.60
68127;BMP180;54931;52.098;21.006;2022-08-01T07:03:05;99998.40;;;21.70
68127;BMP180;54931;52.098;21.006;2022-08-01T07:05:33;99998.80;;;21.88
68127;BMP180;54931;52.098;21.006;2022-08-01T07:08:00;100001.00;;;22.20
68127;BMP180;54931;52.098;21.006;2022-08-01T07:10:28;99998.40;;;22.20
68127;BMP180;54931;52.098;21.006;2022-08-01T07:12:55;99997.60;;;22.32
68127;BMP180;54931;52.098;21.006;2022-08-01T07:15:23;100003.80;;;22.40
68127;BMP180;54931;52.098;21.006;2022-08-01T07:17:53;100001.80;;;22.40
68127;BMP180;54931;52.098;21.006;2022-08-01T07:20:21;100002.60;;;22.30
68127;BMP180;54931;52.098;21.006;2022-08-01T07:22:48;100000.40;;;22.34
68127;BMP180;54931;52.098;21.006;2022-08-01T07:25:16;100001.00;;;22.20
68127;BMP180;54931;52.098;21.006;2022-08-01T07:27:45;99996.60;;;22.20
68127;BMP180;54931;52.098;21.006;2022-08-01T07:30:13;100001.20;;;22.20
68127;BMP180;54931;52.098;21.006;2022-08-01T07:32:41;99996.60;;;22.30
68127;BMP180;54931;52.098;21.006;2022-08-01T07:35:09;99996.20;;;22.30
68127;BMP180;54931;52.098;21.006;2022-08-01T07:37:37;99997.80;;;22.40
68127;BMP180;54931;52.098;21.006;2022-08-01T07:40:06;99995.80;;;22.70
68127;BMP180;54931;52.098;21.006;2022-08-01T07:42:33;99991.40;;;22.82
68127;BMP180;54931;52.098;21.006;2022-08-01T07:45:01;99998.60;;;23.06
68127;BMP180;54931;52.098;21.006;2022-08-01T07:47:29;99994.60;;;23.28
68127;BMP180;54931;52.098;21.006;2022-08-01T07:50:02;99992.00;;;23.34
68127;BMP180;54931;52.098;21.006;2022-08-01T07:52:30;99997.40;;;23.40
68127;BMP180;54931;52.098;21.006;2022-08-01T07:54:58;99996.60;;;23.68
68127;BMP180;54931;52.098;21.006;2022-08-01T07:57:26;99995.40;;;23.80
68127;BMP180;54931;52.098;21.006;2022-08-01T07:59:54;99999.20;;;23.54
68127;BMP180;54931;52.098;21.006;2022-08-01T08:02:21;100003.40;;;23.40
68127;BMP180;54931;52.098;21.006;2022-08-01T08:04:49;100001.60;;;23.40
68127;BMP180;54931;52.098;21.006;2022-08-01T08:07:16;99997.60;;;23.40
68127;BMP180;54931;52.098;21.006;2022-08-01T08:09:44;99990.80;;;23.36
68127;BMP180;54931;52.098;21.006;2022-08-01T08:12:11;99995.80;;;23.26
68127;BMP180;54931;52.098;21.006;2022-08-01T08:14:39;100001.20;;;23.20
68127;BMP180;54931;52.098;21.006;2022-08-01T08:17:07;100005.60;;;23.36
68127;BMP180;54931;52.098;21.006;2022-08-01T08:19:34;100005.00;;;23.58
68127;BMP180;54931;52.098;21.006;2022-08-01T08:22:05;100003.40;;;23.72
68127;BMP180;54931;52.098;21.006;2022-08-01T08:24:39;100006.00;;;23.78
68127;BMP180;54931;52.098;21.006;2022-08-01T08:27:07;100011.00;;;23.90
68127;BMP180;54931;52.098;21.006;2022-08-01T08:29:34;100010.80;;;23.90
68127;BMP180;54931;52.098;21.006;2022-08-01T08:32:02;100013.80;;;23.90
68127;BMP180;54931;52.098;21.006;2022-08-01T08:34:30;100018.40;;;24.10
68127;BMP180;54931;52.098;21.006;2022-08-01T08:36:58;100014.40;;;24.10
68127;BMP180;54931;52.098;21.006;2022-08-01T08:39:26;100016.80;;;24.30
68127;BMP180;54931;52.098;21.006;2022-08-01T08:42:00;100020.80;;;24.40
68127;BMP180;54931;52.098;21.006;2022-08-01T08:44:29;100022.80;;;24.54
68127;BMP180;54931;52.098;21.006;2022-08-01T08:47:00;100027.20;;;24.50
68127;BMP180;54931;52.098;21.006;2022-08-01T08:49:29;100024.80;;;24.40
68127;BMP180;54931;52.098;21.006;2022-08-01T08:52:00;100029.00;;;24.60
68127;BMP180;54931;52.098;21.006;2022-08-01T08:54:29;100026.00;;;24.44
68127;BMP180;54931;52.098;21.006;2022-08-01T08:56:59;100025.80;;;24.34
68127;BMP180;54931;52.098;21.006;2022-08-01T08:59:28;100033.60;;;24.38
68127;BMP180;54931;52.098;21.006;2022-08-01T09:01:57;100034.80;;;24.56
68127;BMP180;54931;52.098;21.006;2022-08-01T09:04:25;100039.40;;;24.80
68127;BMP180;54931;52.098;21.006;2022-08-01T09:06:54;100039.80;;;24.78
68127;BMP180;54931;52.098;21.006;2022-08-01T09:09:22;100037.60;;;24.90
68127;BMP180;54931;52.098;21.006;2022-08-01T09:11:50;100038.60;;;25.12
68127;BMP180;54931;52.098;21.006;2022-08-01T09:14:19;100043.60;;;25.20
68127;BMP180;54931;52.098;21.006;2022-08-01T09:17:06;100046.80;;;25.30
68127;BMP180;54931;52.098;21.006;2022-08-01T09:19:55;100046.20;;;25.00
68127;BMP180;54931;52.098;21.006;2022-08-01T09:22:25;100045.80;;;24.70
68127;BMP180;54931;52.098;21.006;2022-08-01T09:25:03;100057.20;;;24.60
68127;BMP180;54931;52.098;21.006;2022-08-01T09:27:32;100054.60;;;24.70
68127;BMP180;54931;52.098;21.006;2022-08-01T09:30:18;100057.00;;;24.82
68127;BMP180;54931;52.098;21.006;2022-08-01T09:33:01;100058.00;;;24.90
68127;BMP180;54931;52.098;21.006;2022-08-01T09:35:34;100060.40;;;25.14
68127;BMP180;54931;52.098;21.006;2022-08-01T09:38:22;100055.80;;;25.36
68127;BMP180;54931;52.098;21.006;2022-08-01T09:40:58;100056.80;;;25.28
68127;BMP180;54931;52.098;21.006;2022-08-01T09:43:30;100053.20;;;25.00
68127;BMP180;54931;52.098;21.006;2022-08-01T09:45:58;100052.00;;;25.00
68127;BMP180;54931;52.098;21.006;2022-08-01T09:48:27;100053.80;;;25.06
68127;BMP180;54931;52.098;21.006;2022-08-01T09:50:56;100057.40;;;25.20
68127;BMP180;54931;52.098;21.006;2022-08-01T09:53:25;100052.00;;;25.10
68127;BMP180;54931;52.098;21.006;2022-08-01T09:55:52;100055.80;;;25.14
68127;BMP180;54931;52.098;21.006;2022-08-01T09:58:21;100059.20;;;25.20
68127;BMP180;54931;52.098;21.006;2022-08-01T10:00:58;100049.20;;;25.30
68127;BMP180;54931;52.098;21.006;2022-08-01T10:03:30;100054.60;;;25.60
68127;BMP180;54931;52.098;21.006;2022-08-01T10:05:58;100050.80;;;25.50
68127;BMP180;54931;52.098;21.006;2022-08-01T10:08:25;100052.60;;;25.60
68127;BMP180;54931;52.098;21.006;2022-08-01T10:11:11;100050.20;;;25.60
68127;BMP180;54931;52.098;21.006;2022-08-01T10:13:39;100055.40;;;25.80
68127;BMP180;54931;52.098;21.006;2022-08-01T10:16:07;100055.80;;;25.90
68127;BMP180;54931;52.098;21.006;2022-08-01T10:18:37;100053.40;;;26.04
68127;BMP180;54931;52.098;21.006;2022-08-01T10:21:08;100056.40;;;26.26
68127;BMP180;54931;52.098;21.006;2022-08-01T10:23:38;100049.40;;;26.34
68127;BMP180;54931;52.098;21.006;2022-08-01T10:26:08;100050.20;;;26.00
68127;BMP180;54931;52.098;21.006;2022-08-01T10:28:39;100048.00;;;25.90
68127;BMP180;54931;52.098;21.006;2022-08-01T10:31:08;100048.40;;;26.10
68127;BMP180;54931;52.098;21.006;2022-08-01T10:33:36;100050.40;;;26.30
68127;BMP180;54931;52.098;21.006;2022-08-01T10:36:07;100051.60;;;26.44
68127;BMP180;54931;52.098;21.006;2022-08-01T10:38:59;100048.80;;;26.50
68127;BMP180;54931;52.098;21.006;2022-08-01T10:41:27;100053.20;;;26.60
68127;BMP180;54931;52.098;21.006;2022-08-01T10:43:57;100049.40;;;26.80
68127;BMP180;54931;52.098;21.006;2022-08-01T10:46:25;100045.80;;;26.90
68127;BMP180;54931;52.098;21.006;2022-08-01T10:49:04;100047.80;;;26.60
68127;BMP180;54931;52.098;21.006;2022-08-01T10:51:38;100054.80;;;26.40
68127;BMP180;54931;52.098;21.006;2022-08-01T10:54:09;100055.60;;;26.10
68127;BMP180;54931;52.098;21.006;2022-08-01T10:56:51;100044.40;;;25.52
68127;BMP180;54931;52.098;21.006;2022-08-01T10:59:27;100053.40;;;25.06
68127;BMP180;54931;52.098;21.006;2022-08-01T11:02:03;100048.20;;;24.78
68127;BMP180;54931;52.098;21.006;2022-08-01T11:07:18;100044.20;;;24.56
68127;BMP180;54931;52.098;21.006;2022-08-01T11:10:03;100047.20;;;24.60
68127;BMP180;54931;52.098;21.006;2022-08-01T11:12:40;100038.60;;;24.52
68127;BMP180;54931;52.098;21.006;2022-08-01T11:17:45;100043.20;;;24.90
68127;BMP180;54931;52.098;21.006;2022-08-01T11:20:25;100042.40;;;25.16
68127;BMP180;54931;52.098;21.006;2022-08-01T11:30:46;100045.60;;;25.20
68127;BMP180;54931;52.098;21.006;2022-08-01T11:33:17;100048.20;;;25.12
68127;BMP180;54931;52.098;21.006;2022-08-01T11:38:47;100050.20;;;24.90
68127;BMP180;54931;52.098;21.006;2022-08-01T11:41:30;100049.00;;;24.90
68127;BMP180;54931;52.098;21.006;2022-08-01T11:44:17;100049.20;;;24.70
68127;BMP180;54931;52.098;21.006;2022-08-01T11:46:58;100045.20;;;24.52
68127;BMP180;54931;52.098;21.006;2022-08-01T11:49:47;100051.80;;;24.54
68127;BMP180;54931;52.098;21.006;2022-08-01T11:52:27;100046.20;;;24.60
68127;BMP180;54931;52.098;21.006;2022-08-01T11:55:13;100040.80;;;24.80
68127;BMP180;54931;52.098;21.006;2022-08-01T11:57:42;100040.00;;;24.78
68127;BMP180;54931;52.098;21.006;2022-08-01T12:00:19;100038.20;;;24.70
68127;BMP180;54931;52.098;21.006;2022-08-01T12:02:57;100042.60;;;24.60
68127;BMP180;54931;52.098;21.006;2022-08-01T12:05:27;100039.40;;;24.70
68127;BMP180;54931;52.098;21.006;2022-08-01T12:07:56;100037.60;;;24.72
68127;BMP180;54931;52.098;21.006;2022-08-01T12:10:28;100037.80;;;24.80
68127;BMP180;54931;52.098;21.006;2022-08-01T12:13:02;100038.20;;;24.90
68127;BMP180;54931;52.098;21.006;2022-08-01T12:15:33;100034.60;;;25.08
68127;BMP180;54931;52.098;21.006;2022-08-01T12:18:06;100034.20;;;25.18
68127;BMP180;54931;52.098;21.006;2022-08-01T12:20:43;100035.40;;;25.10
68127;BMP180;54931;52.098;21.006;2022-08-01T12:23:14;100034.60;;;25.20
68127;BMP180;54931;52.098;21.006;2022-08-01T12:25:41;100031.60;;;25.14
68127;BMP180;54931;52.098;21.006;2022-08-01T12:28:12;100035.00;;;25.30
68127;BMP180;54931;52.098;21.006;2022-08-01T12:30:41;100033.80;;;25.30
68127;BMP180;54931;52.098;21.006;2022-08-01T12:33:10;100033.00;;;25.44
68127;BMP180;54931;52.098;21.006;2022-08-01T12:35:43;100030.60;;;25.70
68127;BMP180;54931;52.098;21.006;2022-08-01T12:38:17;100031.00;;;25.76
68127;BMP180;54931;52.098;21.006;2022-08-01T12:40:47;100032.80;;;25.82
68127;BMP180;54931;52.098;21.006;2022-08-01T12:43:21;100028.60;;;25.90
68127;BMP180;54931;52.098;21.006;2022-08-01T12:45:50;100026.60;;;25.90
68127;BMP180;54931;52.098;21.006;2022-08-01T12:48:19;100031.60;;;25.90
68127;BMP180;54931;52.098;21.006;2022-08-01T12:50:51;100030.60;;;26.00
68127;BMP180;54931;52.098;21.006;2022-08-01T12:53:20;100036.60;;;26.00
68127;BMP180;54931;52.098;21.006;2022-08-01T12:55:52;100033.60;;;25.90
68127;BMP180;54931;52.098;21.006;2022-08-01T12:58:21;100029.00;;;25.90
68127;BMP180;54931;52.098;21.006;2022-08-01T13:01:02;100023.60;;;25.90
68127;BMP180;54931;52.098;21.006;2022-08-01T13:03:30;100026.60;;;25.82
68127;BMP180;54931;52.098;21.006;2022-08-01T13:05:58;100026.20;;;25.60
68127;BMP180;54931;52.098;21.006;2022-08-01T13:08:31;100021.20;;;25.70
68127;BMP180;54931;52.098;21.006;2022-08-01T13:11:11;100024.80;;;25.74
68127;BMP180;54931;52.098;21.006;2022-08-01T13:13:45;100023.20;;;25.80
68127;BMP180;54931;52.098;21.006;2022-08-01T13:16:22;100024.00;;;25.70
68127;BMP180;54931;52.098;21.006;2022-08-01T13:18:55;100026.40;;;25.60
68127;BMP180;54931;52.098;21.006;2022-08-01T13:21:25;100020.80;;;25.70
68127;BMP180;54931;52.098;21.006;2022-08-01T13:24:13;100023.00;;;25.60
68127;BMP180;54931;52.098;21.006;2022-08-01T13:26:51;100026.60;;;25.60
68127;BMP180;54931;52.098;21.006;2022-08-01T13:29:41;100023.20;;;25.60
68127;BMP180;54931;52.098;21.006;2022-08-01T13:32:19;100024.00;;;25.60
68127;BMP180;54931;52.098;21.006;2022-08-01T13:34:47;100021.00;;;25.70
68127;BMP180;54931;52.098;21.006;2022-08-01T13:37:14;100021.40;;;25.90
68127;BMP180;54931;52.098;21.006;2022-08-01T13:39:44;100019.00;;;25.90
68127;BMP180;54931;52.098;21.006;2022-08-01T13:42:15;100020.40;;;25.90
68127;BMP180;54931;52.098;21.006;2022-08-01T13:44:44;100021.40;;;25.90
68127;BMP180;54931;52.098;21.006;2022-08-01T13:47:14;100021.60;;;26.10
68127;BMP180;54931;52.098;21.006;2022-08-01T13:49:42;100023.40;;;26.20
68127;BMP180;54931;52.098;21.006;2022-08-01T13:52:10;100025.00;;;26.20
68127;BMP180;54931;52.098;21.006;2022-08-01T13:54:37;100016.80;;;25.90
68127;BMP180;54931;52.098;21.006;2022-08-01T13:57:04;100019.60;;;25.80
68127;BMP180;54931;52.098;21.006;2022-08-01T13:59:32;100024.60;;;25.70
68127;BMP180;54931;52.098;21.006;2022-08-01T14:01:59;100028.40;;;25.80
68127;BMP180;54931;52.098;21.006;2022-08-01T14:04:27;100034.20;;;25.70
68127;BMP180;54931;52.098;21.006;2022-08-01T14:06:54;100037.20;;;25.70
68127;BMP180;54931;52.098;21.006;2022-08-01T14:09:22;100034.00;;;25.70
68127;BMP180;54931;52.098;21.006;2022-08-01T14:11:50;100035.20;;;25.70
68127;BMP180;54931;52.098;21.006;2022-08-01T14:14:17;100031.80;;;25.60
68127;BMP180;54931;52.098;21.006;2022-08-01T14:16:45;100033.60;;;25.66
68127;BMP180;54931;52.098;21.006;2022-08-01T14:19:13;100037.20;;;25.70
68127;BMP180;54931;52.098;21.006;2022-08-01T14:21:43;100035.20;;;25.80
68127;BMP180;54931;52.098;21.006;2022-08-01T14:24:10;100042.60;;;25.80
68127;BMP180;54931;52.098;21.006;2022-08-01T14:26:38;100042.00;;;25.80
68127;BMP180;54931;52.098;21.006;2022-08-01T14:29:05;100044.00;;;25.80
68127;BMP180;54931;52.098;21.006;2022-08-01T14:31:33;100043.40;;;25.70
68127;BMP180;54931;52.098;21.006;2022-08-01T14:34:01;100047.80;;;25.80
68127;BMP180;54931;52.098;21.006;2022-08-01T14:36:28;100046.60;;;25.80
68127;BMP180;54931;52.098;21.006;2022-08-01T14:38:55;100050.00;;;25.60
68127;BMP180;54931;52.098;21.006;2022-08-01T14:41:23;100047.40;;;25.60
68127;BMP180;54931;52.098;21.006;2022-08-01T14:43:50;100045.60;;;25.76